createdAt,value
2023-03-14T00:00:47.972Z,64.73
2023-03-14T00:05:53.195Z,63.89
2023-03-14T00:11:22.053Z,66.84
2023-03-14T00:16:48.362Z,66.99
2023-03-14T00:22:12.352Z,66.25
2023-03-14T00:27:36.368Z,65.80
2023-03-14T00:33:00.061Z,65.09
2023-03-14T00:38:25.794Z,65.16
2023-03-14T00:43:49.655Z,64.67
2023-03-14T00:49:13.811Z,64.59
2023-03-14T00:54:37.707Z,64.33
2023-03-14T00:59:43.086Z,64.27
2023-03-14T01:04:50.798Z,64.51
2023-03-14T01:09:56.169Z,64.98
2023-03-14T01:15:20.436Z,65.92
2023-03-14T01:20:25.795Z,65.04
2023-03-14T01:25:50.867Z,64.04
2023-03-14T01:31:17.679Z,65.23
2023-03-14T01:36:23.256Z,64.75
2023-03-14T01:41:29.390Z,64.41
2023-03-14T01:46:42.245Z,64.36
2023-03-14T01:52:11.283Z,65.77
2023-03-14T01:57:33.869Z,65.37
2023-03-14T02:02:41.274Z,65.74
2023-03-14T02:07:51.343Z,66.88
2023-03-14T02:13:04.839Z,65.78
2023-03-14T02:18:21.256Z,66.00
2023-03-14T02:24:35.131Z,64.79
2023-03-14T02:30:06.689Z,66.04
2023-03-14T02:35:16.036Z,65.85
2023-03-14T02:40:21.647Z,65.79
2023-03-14T02:45:42.606Z,66.90
2023-03-14T02:50:53.960Z,67.24
2023-03-14T02:55:59.373Z,66.40
2023-03-14T03:01:07.166Z,65.20
2023-03-14T03:06:12.659Z,66.26
2023-03-14T03:11:18.170Z,65.77
2023-03-14T03:16:23.807Z,65.38
2023-03-14T03:21:29.111Z,64.92
2023-03-14T03:26:36.326Z,65.98
2023-03-14T03:31:46.896Z,63.71
2023-03-14T03:36:52.513Z,62.34
2023-03-14T03:41:58.360Z,61.42
2023-03-14T03:47:04.079Z,57.44
2023-03-14T03:52:10.504Z,55.54
2023-03-14T03:57:16.251Z,55.76
2023-03-14T04:02:21.606Z,54.12
2023-03-14T04:07:29.288Z,53.20
2023-03-14T04:12:34.820Z,50.78
2023-03-14T04:17:47.081Z,49.47
2023-03-14T04:22:52.495Z,49.16
2023-03-14T04:27:57.872Z,48.97
2023-03-14T04:33:08.998Z,46.54
2023-03-14T04:38:21.144Z,45.75
2023-03-14T04:43:29.563Z,46.98
2023-03-14T04:48:42.593Z,46.42
2023-03-14T04:53:48.002Z,44.86
2023-03-14T04:58:52.719Z,44.10
2023-03-14T05:03:56.902Z,43.94
2023-03-14T05:09:19.324Z,42.41
2023-03-14T05:14:51.972Z,43.59
2023-03-14T05:20:14.784Z,43.21
2023-03-14T05:25:49.720Z,42.31
2023-03-14T05:31:13.736Z,37.82
2023-03-14T05:36:45.510Z,36.35
2023-03-14T05:41:50.035Z,36.34
2023-03-14T05:47:04.729Z,35.35
2023-03-14T05:52:23.989Z,35.61
2023-03-14T05:57:57.036Z,36.33
2023-03-14T06:03:23.779Z,37.09
2023-03-14T06:08:28.559Z,35.79
2023-03-14T06:13:32.877Z,38.16
2023-03-14T06:18:36.954Z,37.64
2023-03-14T06:23:44.497Z,36.57
2023-03-14T06:28:48.556Z,38.19
2023-03-14T06:33:52.614Z,37.62
2023-03-14T06:38:57.656Z,38.00
2023-03-14T06:44:03.259Z,38.56
2023-03-14T06:49:07.576Z,37.52
2023-03-14T06:54:12.087Z,38.56
2023-03-14T06:59:16.569Z,37.61
2023-03-14T07:04:24.221Z,39.35
2023-03-14T07:09:28.345Z,37.32
2023-03-14T07:14:37.131Z,40.08
2023-03-14T07:19:41.325Z,37.58
2023-03-14T07:24:51.453Z,38.02
2023-03-14T07:29:56.825Z,39.47
2023-03-14T07:35:00.960Z,37.92
2023-03-14T07:40:09.556Z,37.89
2023-03-14T07:45:20.679Z,38.17
2023-03-14T07:50:29.891Z,38.19
2023-03-14T07:55:35.429Z,40.03
2023-03-14T08:00:39.411Z,42.71
2023-03-14T08:05:43.717Z,40.81
2023-03-14T08:10:47.992Z,41.94
2023-03-14T08:15:52.665Z,42.17
2023-03-14T08:20:56.759Z,41.50
2023-03-14T08:26:00.745Z,42.15
2023-03-14T08:31:05.243Z,41.47
2023-03-14T08:36:09.908Z,42.85
2023-03-14T08:41:14.013Z,43.25
2023-03-14T08:46:18.090Z,42.36
2023-03-14T08:51:22.000Z,42.37
2023-03-14T08:56:26.256Z,41.23
2023-03-14T09:01:30.537Z,42.34
2023-03-14T09:06:34.847Z,42.54
2023-03-14T09:11:38.840Z,42.16
2023-03-14T09:16:42.903Z,42.43
2023-03-14T09:21:46.997Z,41.98
2023-03-14T09:26:50.978Z,41.21
2023-03-14T09:32:00.174Z,41.07
2023-03-14T09:37:04.609Z,40.79
2023-03-14T09:42:16.723Z,42.10
2023-03-14T09:47:21.581Z,40.86
2023-03-14T09:52:40.637Z,41.74
2023-03-14T09:57:46.815Z,41.76
2023-03-14T10:03:25.821Z,41.70
2023-03-14T10:08:29.976Z,41.63
2023-03-14T10:13:33.957Z,40.88
2023-03-14T10:18:38.025Z,41.84
2023-03-14T10:23:42.087Z,42.55
2023-03-14T10:28:49.534Z,41.41
2023-03-14T10:34:05.537Z,41.89
2023-03-14T10:39:30.634Z,41.19
2023-03-14T10:44:37.682Z,41.00
2023-03-14T10:49:41.987Z,40.63
2023-03-14T10:54:49.338Z,40.05
2023-03-14T10:59:54.829Z,41.00
2023-03-14T11:05:26.408Z,41.13
2023-03-14T11:10:34.401Z,40.23
2023-03-14T11:15:41.767Z,40.40
2023-03-14T11:21:12.967Z,39.22
2023-03-14T11:27:06.773Z,39.61
2023-03-14T11:32:30.050Z,39.41
2023-03-14T11:37:49.274Z,38.54
2023-03-14T11:43:08.695Z,38.93
2023-03-14T11:48:57.720Z,38.75
2023-03-14T11:54:13.607Z,37.86
2023-03-14T11:59:23.378Z,38.62
2023-03-14T12:04:49.904Z,38.85
2023-03-14T12:09:56.589Z,38.75
2023-03-14T12:15:03.232Z,38.34
2023-03-14T12:20:08.668Z,39.67
2023-03-14T12:25:21.126Z,38.66
2023-03-14T12:30:39.489Z,40.15
2023-03-14T12:35:46.409Z,39.95
2023-03-14T12:41:14.968Z,41.48
2023-03-14T12:46:29.157Z,41.67
2023-03-14T12:51:42.990Z,42.03
2023-03-14T12:57:05.467Z,41.07
2023-03-14T13:02:10.039Z,39.80
2023-03-14T13:07:46.037Z,39.96
2023-03-14T13:12:58.871Z,40.89
2023-03-14T13:18:22.507Z,40.83
2023-03-14T13:23:30.273Z,41.24
2023-03-14T13:28:36.820Z,42.02
2023-03-14T13:33:42.790Z,42.92
2023-03-14T13:38:46.820Z,43.99
2023-03-14T13:43:52.156Z,43.14
2023-03-14T13:49:05.369Z,43.66
2023-03-14T13:54:20.813Z,43.73
2023-03-14T13:59:27.960Z,44.17
2023-03-14T14:04:38.008Z,44.46
2023-03-14T14:09:51.747Z,44.33
2023-03-14T14:15:28.763Z,45.02
2023-03-14T14:20:40.702Z,44.81
2023-03-14T14:25:46.856Z,45.37
2023-03-14T14:31:26.715Z,45.93
2023-03-14T14:36:56.836Z,46.49
2023-03-14T14:42:02.297Z,47.01
2023-03-14T14:47:07.811Z,46.72
2023-03-14T14:52:17.440Z,46.89
2023-03-14T14:57:40.852Z,47.60
2023-03-14T15:02:52.147Z,48.74
2023-03-14T15:07:59.239Z,49.85
2023-03-14T15:13:04.457Z,51.53
2023-03-14T15:18:20.691Z,52.90
2023-03-14T15:23:25.996Z,53.60
2023-03-14T15:28:31.837Z,52.00
2023-03-14T15:33:37.216Z,52.74
2023-03-14T15:38:42.578Z,52.80
2023-03-14T15:43:48.454Z,52.91
2023-03-14T15:48:54.363Z,53.55
2023-03-14T15:53:59.730Z,54.40
2023-03-14T15:59:05.029Z,55.50
2023-03-14T16:04:10.383Z,57.45
2023-03-14T16:09:16.006Z,56.44
2023-03-14T16:14:21.224Z,56.68
2023-03-14T16:19:32.061Z,57.07
2023-03-14T16:24:37.493Z,56.30
2023-03-14T16:29:43.813Z,57.56
2023-03-14T16:34:49.281Z,58.32
2023-03-14T16:40:11.677Z,59.59
2023-03-14T16:45:20.388Z,59.47
2023-03-14T16:50:25.741Z,60.19
2023-03-14T16:55:31.078Z,59.75
2023-03-14T17:00:36.692Z,59.71
2023-03-14T17:05:53.548Z,60.51
2023-03-14T17:10:58.827Z,60.47
2023-03-14T17:16:04.495Z,60.23
2023-03-14T17:21:09.966Z,59.95
2023-03-14T17:26:16.035Z,61.61
2023-03-14T17:31:23.203Z,62.08
2023-03-14T17:36:31.186Z,62.97
2023-03-14T17:41:36.432Z,62.77
2023-03-14T17:46:41.805Z,62.52
2023-03-14T17:51:47.119Z,61.80
2023-03-14T17:56:52.481Z,61.83
2023-03-14T18:01:57.727Z,62.20
2023-03-14T18:07:03.123Z,63.29
2023-03-14T18:12:08.770Z,62.91
2023-03-14T18:17:14.348Z,62.29
2023-03-14T18:22:19.658Z,62.39
2023-03-14T18:27:25.202Z,62.47
2023-03-14T18:32:30.757Z,62.07
2023-03-14T18:37:36.788Z,62.86
2023-03-14T18:42:42.083Z,62.83
2023-03-14T18:47:47.324Z,63.47
2023-03-14T18:52:52.564Z,61.98
2023-03-14T18:57:58.095Z,63.05
2023-03-14T19:03:04.490Z,63.18
2023-03-14T19:08:09.460Z,62.58
2023-03-14T19:13:14.818Z,62.39
2023-03-14T19:18:20.359Z,64.34
2023-03-14T19:23:26.426Z,64.54
2023-03-14T19:28:32.725Z,63.39
2023-03-14T19:33:38.054Z,63.09
2023-03-14T19:38:43.288Z,63.33
2023-03-14T19:43:48.649Z,63.43
2023-03-14T19:48:56.637Z,64.01
2023-03-14T19:54:07.922Z,63.48
2023-03-14T19:59:13.266Z,63.79
2023-03-14T20:04:18.566Z,63.94
2023-03-14T20:09:23.941Z,64.11
2023-03-14T20:14:29.313Z,64.65
2023-03-14T20:19:34.495Z,64.26
2023-03-14T20:24:39.760Z,63.90
2023-03-14T20:29:45.207Z,64.40
2023-03-14T20:34:51.045Z,64.23
2023-03-14T20:39:56.521Z,64.07
2023-03-14T20:45:02.114Z,63.64
2023-03-14T20:50:08.690Z,63.82
2023-03-14T20:55:14.065Z,63.45
2023-03-14T21:00:19.849Z,63.11
2023-03-14T21:05:25.521Z,62.72
2023-03-14T21:10:31.009Z,63.16
2023-03-14T21:15:38.573Z,62.86
2023-03-14T21:20:44.435Z,62.52
2023-03-14T21:25:51.315Z,62.43
2023-03-14T21:30:56.813Z,62.83
2023-03-14T21:36:02.339Z,62.83
2023-03-14T21:41:09.067Z,61.97
2023-03-14T21:46:14.148Z,63.03
2023-03-14T21:51:19.536Z,62.33
2023-03-14T21:56:27.528Z,62.37
2023-03-14T22:01:33.469Z,62.56
2023-03-14T22:06:38.853Z,62.36
2023-03-14T22:11:44.124Z,62.68
2023-03-14T22:16:49.447Z,63.21
2023-03-14T22:21:54.833Z,62.55
2023-03-14T22:27:00.396Z,62.84
2023-03-14T22:32:06.518Z,62.47
2023-03-14T22:37:14.585Z,62.76
2023-03-14T22:42:20.343Z,62.41
2023-03-14T22:47:25.572Z,62.14
2023-03-14T22:52:32.318Z,62.62
2023-03-14T22:57:38.077Z,63.14
2023-03-14T23:02:43.376Z,63.07
2023-03-14T23:07:49.086Z,63.06
2023-03-14T23:13:00.174Z,63.26
2023-03-14T23:18:05.654Z,63.32
2023-03-14T23:23:16.703Z,63.55
2023-03-14T23:28:23.558Z,63.43
2023-03-14T23:33:29.785Z,64.20
2023-03-14T23:38:35.787Z,64.21
2023-03-14T23:43:47.956Z,64.28
2023-03-14T23:48:55.612Z,63.37
2023-03-14T23:54:01.158Z,63.85
2023-03-14T23:59:06.362Z,64.04
